Strassen, Luxembourg
Current Conditions -  °F | °C
As of 7:20 PM on Friday 19 Dec 2014 (Local Time) from ELLX Reporting Station
Broken Clouds Broken Clouds  
Wind Chill: 41°   Ceiling: 2100
Heat Index: 46°   Visibility: 6mi
Dew Point: 45°   Wind: 10mph
Humidity: 93%   Direction: 280°W
Pressure: 30.06"   Gusts: NA
Location:  49.62°N, 6.07°E
Report Text: ELLX 191820Z 28009KT 9999 SCT011 BKN021 08/07 Q1018 NOSIG
Loading
Personal Weather Stations






























Interactive Weather Map New forecast layout! Learn more

10-Day Weather Forecast

Advertisements
Track Severe Weather on mobile